Time,TemperatureF,DewpointF,PressureIn,WindDirection,WindDirectionDegrees,WindSpeedMPH,WindSpeedGustMPH,Humidity,HourlyPrecipIn,Conditions,Clouds,dailyrainin,SoftwareType,DateUTC
2013-06-05 00:00:00,58.3,46.2,30.13,NE,45,2.0,6.0,64,0.00,CLR,CLR,0.00,WeatherDisplay:10.37,2013-06-04 23:00:00,
2013-06-05 00:10:00,58.3,44.9,30.13,East,93,5.0,7.0,61,0.00,CLR,CLR,0.00,WeatherDisplay:10.37,2013-06-04 23:10:00,
2013-06-05 00:20:00,58.5,44.6,30.13,East,94,6.0,8.0,60,0.00,CLR,CLR,0.00,WeatherDisplay:10.37,2013-06-04 23:20:00,
2013-06-05 00:30:00,58.3,44.9,30.13,East,84,6.0,9.0,61,0.00,CLR,CLR,0.00,WeatherDisplay:10.37,2013-06-04 23:30:00,
2013-06-05 00:40:00,57.7,44.4,30.13,East,92,6.0,8.0,61,0.00,CLR,CLR,0.00,WeatherDisplay:10.37,2013-06-04 23:40:00,
2013-06-05 00:50:00,58.1,44.3,30.13,East,100,3.0,7.0,60,0.00,CLR,CLR,0.00,WeatherDisplay:10.37,2013-06-04 23:50:00,
2013-06-05 01:00:00,57.4,43.6,30.13,East,97,3.0,6.0,60,0.00,CLR,CLR,0.00,WeatherDisplay:10.37,2013-06-05 00:00:00,
2013-06-05 01:10:00,56.9,44.4,30.13,East,93,3.0,6.0,63,0.00,CLR,CLR,0.00,WeatherDisplay:10.37,2013-06-05 00:10:00,
2013-06-05 01:20:00,56.3,43.5,30.13,East,90,3.0,6.0,62,0.00,CLR,CLR,0.00,WeatherDisplay:10.37,2013-06-05 00:20:00,
2013-06-05 01:30:00,56.2,44.1,30.13,East,85,5.0,6.0,64,0.00,CLR,CLR,0.00,WeatherDisplay:10.37,2013-06-05 00:30:00,
2013-06-05 01:40:00,56.1,44.9,30.13,ENE,65,3.0,7.0,66,0.00,CLR,CLR,0.00,WeatherDisplay:10.37,2013-06-05 00:40:00,
2013-06-05 01:50:00,55.9,44.3,30.12,East,84,3.0,8.0,65,0.00,CLR,CLR,0.00,WeatherDisplay:10.37,2013-06-05 00:50:00,
2013-06-05 02:00:00,55.8,44.2,30.12,ENE,69,3.0,8.0,65,0.00,CLR,CLR,0.00,WeatherDisplay:10.37,2013-06-05 01:00:00,
2013-06-05 02:10:00,55.2,44.4,30.12,East,81,6.0,9.0,67,0.00,CLR,CLR,0.00,WeatherDisplay:10.37,2013-06-05 01:10:00,
2013-06-05 02:20:00,55.0,44.3,30.12,East,80,5.0,8.0,67,0.00,CLR,CLR,0.00,WeatherDisplay:10.37,2013-06-05 01:20:00,
2013-06-05 02:30:00,54.5,44.2,30.12,ENE,71,5.0,10.0,68,0.00,CLR,CLR,0.00,WeatherDisplay:10.37,2013-06-05 01:30:00,
2013-06-05 02:40:00,54.0,44.0,30.12,ENE,78,3.0,10.0,69,0.00,CLR,CLR,0.00,WeatherDisplay:10.37,2013-06-05 01:40:00,
2013-06-05 02:50:00,53.4,44.2,30.11,ENE,73,6.0,10.0,71,0.00,CLR,CLR,0.00,WeatherDisplay:10.37,2013-06-05 01:50:00,
2013-06-05 03:00:00,53.1,43.9,30.11,East,90,1.0,8.0,71,0.00,CLR,CLR,0.00,WeatherDisplay:10.37,2013-06-05 02:00:00,
2013-06-05 03:10:00,52.5,43.8,30.11,ENE,75,5.0,6.0,72,0.00,CLR,CLR,0.00,WeatherDisplay:10.37,2013-06-05 02:10:00,
2013-06-05 03:20:00,52.3,43.9,30.11,ESE,102,3.0,8.0,73,0.00,CLR,CLR,0.00,WeatherDisplay:10.37,2013-06-05 02:20:00,
2013-06-05 03:30:00,52.3,43.9,30.11,NE,43,5.0,8.0,73,0.00,CLR,CLR,0.00,WeatherDisplay:10.37,2013-06-05 02:30:00,
2013-06-05 03:40:00,51.8,43.8,30.10,NE,41,6.0,8.0,74,0.00,CLR,CLR,0.00,WeatherDisplay:10.37,2013-06-05 02:40:00,
2013-06-05 03:50:00,51.8,44.1,30.10,NE,55,6.0,8.0,75,0.00,CLR,CLR,0.00,WeatherDisplay:10.37,2013-06-05 02:50:00,
2013-06-05 04:00:00,51.8,43.8,30.10,ENE,64,5.0,9.0,74,0.00,CLR,CLR,0.00,WeatherDisplay:10.37,2013-06-05 03:00:00,
2013-06-05 04:10:00,51.8,43.4,30.10,ENE,62,6.0,10.0,73,0.00,CLR,CLR,0.00,WeatherDisplay:10.37,2013-06-05 03:10:00,
2013-06-05 04:20:00,52.0,43.6,30.09,NE,48,6.0,11.0,73,0.00,CLR,CLR,0.00,WeatherDisplay:10.37,2013-06-05 03:20:00,
2013-06-05 04:30:00,52.0,43.6,30.09,NE,51,6.0,11.0,73,0.00,CLR,CLR,0.00,WeatherDisplay:10.37,2013-06-05 03:30:00,
2013-06-05 04:40:00,51.9,43.5,30.09,NE,50,5.0,10.0,73,0.00,CLR,CLR,0.00,WeatherDisplay:10.37,2013-06-05 03:40:00,
2013-06-05 04:50:00,51.6,43.6,30.09,NE,38,6.0,11.0,74,0.00,CLR,CLR,0.00,WeatherDisplay:10.37,2013-06-05 03:50:00,
2013-06-05 05:00:00,50.6,43.0,30.09,NE,44,9.0,12.0,75,0.00,CLR,CLR,0.00,WeatherDisplay:10.37,2013-06-05 04:00:00,
2013-06-05 05:10:00,50.4,42.7,30.09,ENE,60,6.0,13.0,75,0.00,CLR,CLR,0.00,WeatherDisplay:10.37,2013-06-05 04:10:00,
2013-06-05 05:20:00,50.3,42.7,30.09,NE,48,8.0,13.0,75,0.00,CLR,CLR,0.00,WeatherDisplay:10.37,2013-06-05 04:20:00,
2013-06-05 05:30:00,50.4,42.4,30.09,ENE,67,7.0,13.0,74,0.00,CLR,CLR,0.00,WeatherDisplay:10.37,2013-06-05 04:30:00,
2013-06-05 05:40:00,50.5,42.2,30.09,NE,37,8.0,12.0,73,0.00,CLR,CLR,0.00,WeatherDisplay:10.37,2013-06-05 04:40:00,
2013-06-05 05:50:00,50.5,42.2,30.08,NNE,33,6.0,12.0,73,0.00,CLR,CLR,0.00,WeatherDisplay:10.37,2013-06-05 04:50:00,
2013-06-05 06:00:00,50.6,42.6,30.09,NE,34,7.0,11.0,74,0.00,CLR,CLR,0.00,WeatherDisplay:10.37,2013-06-05 05:00:00,
2013-06-05 06:10:00,51.1,42.7,30.08,NE,48,6.0,10.0,73,0.00,CLR,CLR,0.00,WeatherDisplay:10.37,2013-06-05 05:10:00,
2013-06-05 06:20:00,51.1,42.7,30.08,NNE,25,7.0,10.0,73,0.00,CLR,CLR,0.00,WeatherDisplay:10.37,2013-06-05 05:20:00,
2013-06-05 06:30:00,51.3,42.9,30.08,NNE,33,5.0,11.0,73,0.00,CLR,CLR,0.00,WeatherDisplay:10.37,2013-06-05 05:30:00,
2013-06-05 06:40:00,51.8,43.1,30.08,ENE,69,6.0,9.0,72,0.00,CLR,CLR,0.00,WeatherDisplay:10.37,2013-06-05 05:40:00,
2013-06-05 06:50:00,52.2,43.0,30.08,ENE,59,5.0,11.0,71,0.00,CLR,CLR,0.00,WeatherDisplay:10.37,2013-06-05 05:50:00,
2013-06-05 07:00:00,52.5,43.8,30.08,East,83,3.0,12.0,72,0.00,CLR,CLR,0.00,WeatherDisplay:10.37,2013-06-05 06:00:00,
2013-06-05 07:10:00,52.7,43.9,30.07,NNE,21,3.0,10.0,72,0.00,CLR,CLR,0.00,WeatherDisplay:10.37,2013-06-05 06:10:00,
2013-06-05 07:20:00,53.2,44.4,30.07,NE,37,6.0,11.0,72,0.00,CLR,CLR,0.00,WeatherDisplay:10.37,2013-06-05 06:20:00,
2013-06-05 07:30:00,54.3,44.7,30.07,ENE,60,3.0,10.0,70,0.00,CLR,CLR,0.00,WeatherDisplay:10.37,2013-06-05 06:30:00,
2013-06-05 07:40:00,55.5,45.1,30.07,NE,40,2.0,10.0,68,0.00,CLR,CLR,0.00,WeatherDisplay:10.37,2013-06-05 06:40:00,
2013-06-05 07:50:00,56.3,45.5,30.07,ENE,72,2.0,9.0,67,0.00,CLR,CLR,0.00,WeatherDisplay:10.37,2013-06-05 06:50:00,
2013-06-05 08:00:00,58.1,46.4,30.07,ENE,58,2.0,6.0,65,0.00,CLR,CLR,0.00,WeatherDisplay:10.37,2013-06-05 07:00:00,
2013-06-05 08:10:00,58.8,46.6,30.07,NE,36,2.0,5.0,64,0.00,CLR,CLR,0.00,WeatherDisplay:10.37,2013-06-05 07:10:00,
2013-06-05 08:20:00,57.2,45.9,30.07,NNE,26,6.0,8.0,66,0.00,CLR,CLR,0.00,WeatherDisplay:10.37,2013-06-05 07:20:00,
2013-06-05 08:30:00,56.7,46.6,30.07,NE,38,2.0,8.0,69,0.00,CLR,CLR,0.00,WeatherDisplay:10.37,2013-06-05 07:30:00,
2013-06-05 08:40:00,57.0,47.3,30.07,NNE,13,5.0,8.0,70,0.00,CLR,CLR,0.00,WeatherDisplay:10.37,2013-06-05 07:40:00,
2013-06-05 08:50:00,57.1,47.4,30.06,NNE,22,5.0,10.0,70,0.00,CLR,CLR,0.00,WeatherDisplay:10.37,2013-06-05 07:50:00,
2013-06-05 09:00:00,59.2,47.4,30.06,NNE,22,7.0,12.0,65,0.00,CLR,CLR,0.00,WeatherDisplay:10.37,2013-06-05 08:00:00,
2013-06-05 09:10:00,59.2,47.4,30.06,NNE,28,7.0,10.0,65,0.00,CLR,CLR,0.00,WeatherDisplay:10.37,2013-06-05 08:10:00,
2013-06-05 09:20:00,59.9,48.9,30.06,NNE,25,3.0,10.0,67,0.00,CLR,CLR,0.00,WeatherDisplay:10.37,2013-06-05 08:20:00,
2013-06-05 09:30:00,61.7,49.0,30.06,East,79,8.0,11.0,63,0.00,CLR,CLR,0.00,WeatherDisplay:10.37,2013-06-05 08:30:00,
2013-06-05 09:40:00,61.9,49.2,30.06,East,87,2.0,11.0,63,0.00,CLR,CLR,0.00,WeatherDisplay:10.37,2013-06-05 08:40:00,
2013-06-05 09:50:00,62.8,49.1,30.06,ESE,108,3.0,11.0,61,0.00,CLR,CLR,0.00,WeatherDisplay:10.37,2013-06-05 08:50:00,
2013-06-05 10:00:00,64.1,50.3,30.06,East,98,5.0,8.0,61,0.00,CLR,CLR,0.00,WeatherDisplay:10.37,2013-06-05 09:00:00,
2013-06-05 10:10:00,65.7,50.5,30.05,ESE,112,5.0,8.0,58,0.00,CLR,CLR,0.00,WeatherDisplay:10.37,2013-06-05 09:10:00,
2013-06-05 10:20:00,65.7,50.5,30.05,SE,144,3.0,6.0,58,0.00,CLR,CLR,0.00,WeatherDisplay:10.37,2013-06-05 09:20:00,
2013-06-05 10:30:00,66.1,50.0,30.05,ESE,109,3.0,8.0,56,0.00,CLR,CLR,0.00,WeatherDisplay:10.37,2013-06-05 09:30:00,
2013-06-05 10:40:00,66.3,50.6,30.05,East,91,2.0,8.0,57,0.00,CLR,CLR,0.00,WeatherDisplay:10.37,2013-06-05 09:40:00,
2013-06-05 10:50:00,68.3,51.0,30.04,East,101,3.0,8.0,54,0.00,CLR,CLR,0.00,WeatherDisplay:10.37,2013-06-05 09:50:00,
2013-06-05 11:00:00,69.3,51.9,30.04,ESE,121,3.0,9.0,54,0.00,CLR,CLR,0.00,WeatherDisplay:10.37,2013-06-05 10:00:00,
2013-06-05 11:10:00,68.6,51.3,30.04,SSE,150,2.0,7.0,54,0.00,CLR,CLR,0.00,WeatherDisplay:10.37,2013-06-05 10:10:00,
2013-06-05 11:20:00,69.7,51.3,30.04,SE,126,2.0,6.0,52,0.00,CLR,CLR,0.00,WeatherDisplay:10.37,2013-06-05 10:20:00,
2013-06-05 11:30:00,69.0,51.6,30.03,SE,145,5.0,8.0,54,0.00,CLR,CLR,0.00,WeatherDisplay:10.37,2013-06-05 10:30:00,
2013-06-05 11:40:00,69.6,51.7,30.03,ESE,116,7.0,10.0,53,0.00,CLR,CLR,0.00,WeatherDisplay:10.37,2013-06-05 10:40:00,
2013-06-05 11:50:00,69.6,52.7,30.03,SSE,168,5.0,10.0,55,0.00,CLR,CLR,0.00,WeatherDisplay:10.37,2013-06-05 10:50:00,
2013-06-05 12:00:00,70.3,51.9,30.03,SSE,155,3.0,13.0,52,0.00,CLR,CLR,0.00,WeatherDisplay:10.37,2013-06-05 11:00:00,
2013-06-05 12:10:00,68.0,52.2,30.03,SW,222,1.0,8.0,57,0.00,CLR,CLR,0.00,WeatherDisplay:10.37,2013-06-05 11:10:00,
2013-06-05 12:20:00,67.6,53.7,30.03,SW,233,5.0,8.0,61,0.00,CLR,CLR,0.00,WeatherDisplay:10.37,2013-06-05 11:20:00,
2013-06-05 12:30:00,66.9,52.1,30.02,WSW,241,5.0,8.0,59,0.00,CLR,CLR,0.00,WeatherDisplay:10.37,2013-06-05 11:30:00,
2013-06-05 12:40:00,66.8,52.5,30.02,SSW,209,5.0,7.0,60,0.00,CLR,CLR,0.00,WeatherDisplay:10.37,2013-06-05 11:40:00,
2013-06-05 12:50:00,69.7,53.3,30.03,SSE,162,6.0,11.0,56,0.00,CLR,CLR,0.00,WeatherDisplay:10.37,2013-06-05 11:50:00,
2013-06-05 13:00:00,69.8,51.4,30.02,ESE,108,8.0,16.0,52,0.00,CLR,CLR,0.00,WeatherDisplay:10.37,2013-06-05 12:00:00,
2013-06-05 13:10:00,69.9,50.4,30.02,East,80,7.0,20.0,50,0.00,CLR,CLR,0.00,WeatherDisplay:10.37,2013-06-05 12:10:00,
2013-06-05 13:20:00,70.6,51.0,30.02,East,86,12.0,20.0,50,0.00,CLR,CLR,0.00,WeatherDisplay:10.37,2013-06-05 12:20:00,
2013-06-05 13:30:00,69.7,51.3,30.01,ESE,115,10.0,17.0,52,0.00,CLR,CLR,0.00,WeatherDisplay:10.37,2013-06-05 12:30:00,
2013-06-05 13:40:00,70.2,49.0,30.01,SE,129,7.0,20.0,47,0.00,CLR,CLR,0.00,WeatherDisplay:10.37,2013-06-05 12:40:00,
2013-06-05 13:50:00,70.5,49.9,30.01,ESE,110,12.0,17.0,48,0.00,CLR,CLR,0.00,WeatherDisplay:10.37,2013-06-05 12:50:00,
2013-06-05 14:00:00,70.7,49.5,30.01,ESE,105,7.0,21.0,47,0.00,CLR,CLR,0.00,WeatherDisplay:10.37,2013-06-05 13:00:00,
2013-06-05 14:10:00,70.1,48.4,30.01,ESE,120,6.0,17.0,46,0.00,CLR,CLR,0.00,WeatherDisplay:10.37,2013-06-05 13:10:00,
2013-06-05 14:20:00,70.6,49.4,30.00,ESE,102,15.0,21.0,47,0.00,CLR,CLR,0.00,WeatherDisplay:10.37,2013-06-05 13:20:00,
2013-06-05 14:30:00,71.6,49.7,30.00,ESE,116,9.0,21.0,46,0.00,CLR,CLR,0.00,WeatherDisplay:10.37,2013-06-05 13:30:00,
2013-06-05 14:40:00,71.8,51.0,30.00,SE,126,8.0,15.0,48,0.00,CLR,CLR,0.00,WeatherDisplay:10.37,2013-06-05 13:40:00,
2013-06-05 14:50:00,72.3,51.5,30.00,East,98,5.0,13.0,48,0.00,CLR,CLR,0.00,WeatherDisplay:10.37,2013-06-05 13:50:00,
2013-06-05 15:00:00,71.3,49.5,30.00,ESE,120,9.0,14.0,46,0.00,CLR,CLR,0.00,WeatherDisplay:10.37,2013-06-05 14:00:00,
2013-06-05 15:10:00,72.2,49.7,30.00,SE,143,8.0,13.0,45,0.00,CLR,CLR,0.00,WeatherDisplay:10.37,2013-06-05 14:10:00,
2013-06-05 15:20:00,71.8,51.0,30.00,East,97,8.0,16.0,48,0.00,CLR,CLR,0.00,WeatherDisplay:10.37,2013-06-05 14:20:00,
2013-06-05 15:30:00,70.9,50.8,30.00,East,98,7.0,15.0,49,0.00,CLR,CLR,0.00,WeatherDisplay:10.37,2013-06-05 14:30:00,
2013-06-05 15:40:00,70.8,51.3,30.00,East,96,8.0,14.0,50,0.00,CLR,CLR,0.00,WeatherDisplay:10.37,2013-06-05 14:40:00,
2013-06-05 15:50:00,71.4,51.3,30.00,ESE,109,8.0,14.0,49,0.00,CLR,CLR,0.00,WeatherDisplay:10.37,2013-06-05 14:50:00,
2013-06-05 16:00:00,72.5,49.9,29.99,ESE,109,6.0,13.0,45,0.00,CLR,CLR,0.00,WeatherDisplay:10.37,2013-06-05 15:00:00,
2013-06-05 16:10:00,73.2,48.7,29.99,ESE,109,6.0,14.0,42,0.00,CLR,CLR,0.00,WeatherDisplay:10.37,2013-06-05 15:10:00,
2013-06-05 16:20:00,71.1,49.8,29.99,East,100,6.0,13.0,47,0.00,CLR,CLR,0.00,WeatherDisplay:10.37,2013-06-05 15:20:00,
2013-06-05 16:30:00,71.4,50.1,29.99,ESE,106,3.0,14.0,47,0.00,CLR,CLR,0.00,WeatherDisplay:10.37,2013-06-05 15:30:00,
2013-06-05 16:40:00,71.7,49.2,29.99,East,94,5.0,16.0,45,0.00,CLR,CLR,0.00,WeatherDisplay:10.37,2013-06-05 15:40:00,
2013-06-05 16:50:00,74.1,52.0,29.99,East,90,7.0,15.0,46,0.00,CLR,CLR,0.00,WeatherDisplay:10.37,2013-06-05 15:50:00,
2013-06-05 17:00:00,71.3,49.5,29.98,East,94,9.0,15.0,46,0.00,CLR,CLR,0.00,WeatherDisplay:10.37,2013-06-05 16:00:00,
2013-06-05 17:10:00,70.5,51.0,29.98,ESE,120,5.0,13.0,50,0.00,CLR,CLR,0.00,WeatherDisplay:10.37,2013-06-05 16:10:00,
2013-06-05 17:20:00,71.5,51.3,29.98,ESE,112,8.0,14.0,49,0.00,CLR,CLR,0.00,WeatherDisplay:10.37,2013-06-05 16:20:00,
2013-06-05 17:30:00,74.1,51.4,29.97,ESE,123,10.0,17.0,45,0.00,CLR,CLR,0.00,WeatherDisplay:10.37,2013-06-05 16:30:00,
2013-06-05 17:40:00,72.0,49.5,29.97,ESE,109,9.0,16.0,45,0.00,CLR,CLR,0.00,WeatherDisplay:10.37,2013-06-05 16:40:00,
2013-06-05 17:50:00,72.0,48.9,29.97,ESE,106,8.0,15.0,44,0.00,CLR,CLR,0.00,WeatherDisplay:10.37,2013-06-05 16:50:00,
2013-06-05 18:00:00,71.4,50.1,29.97,East,92,10.0,20.0,47,0.00,CLR,CLR,0.00,WeatherDisplay:10.37,2013-06-05 17:00:00,
2013-06-05 18:10:00,70.2,50.6,29.97,East,93,8.0,18.0,50,0.00,CLR,CLR,0.00,WeatherDisplay:10.37,2013-06-05 17:10:00,
2013-06-05 18:20:00,69.8,50.9,29.97,East,98,6.0,13.0,51,0.00,CLR,CLR,0.00,WeatherDisplay:10.37,2013-06-05 17:20:00,
2013-06-05 18:30:00,70.0,51.5,29.97,East,96,7.0,10.0,52,0.00,CLR,CLR,0.00,WeatherDisplay:10.37,2013-06-05 17:30:00,
2013-06-05 18:40:00,70.2,51.2,29.97,East,88,7.0,17.0,51,0.00,CLR,CLR,0.00,WeatherDisplay:10.37,2013-06-05 17:40:00,
2013-06-05 18:50:00,70.1,51.1,29.97,ENE,78,8.0,15.0,51,0.00,CLR,CLR,0.00,WeatherDisplay:10.37,2013-06-05 17:50:00,
2013-06-05 19:00:00,70.3,51.3,29.97,ENE,72,8.0,16.0,51,0.00,CLR,CLR,0.00,WeatherDisplay:10.37,2013-06-05 18:00:00,
2013-06-05 19:10:00,70.1,51.1,29.97,East,93,10.0,17.0,51,0.00,CLR,CLR,0.00,WeatherDisplay:10.37,2013-06-05 18:10:00,
2013-06-05 19:20:00,69.4,51.6,29.97,ENE,74,6.0,15.0,53,0.00,CLR,CLR,0.00,WeatherDisplay:10.37,2013-06-05 18:20:00,
2013-06-05 19:30:00,68.6,51.3,29.97,East,88,7.0,15.0,54,0.00,CLR,CLR,0.00,WeatherDisplay:10.37,2013-06-05 18:30:00,
2013-06-05 19:40:00,68.2,50.9,29.98,East,92,9.0,17.0,54,0.00,CLR,CLR,0.00,WeatherDisplay:10.37,2013-06-05 18:40:00,
2013-06-05 19:50:00,67.9,51.6,29.98,East,99,7.0,14.0,56,0.00,CLR,CLR,0.00,WeatherDisplay:10.37,2013-06-05 18:50:00,
2013-06-05 20:00:00,67.6,50.9,29.98,East,81,9.0,17.0,55,0.00,CLR,CLR,0.00,WeatherDisplay:10.37,2013-06-05 19:00:00,
2013-06-05 20:10:00,67.1,50.8,29.97,ESE,109,9.0,16.0,56,0.00,CLR,CLR,0.00,WeatherDisplay:10.37,2013-06-05 19:10:00,
2013-06-05 20:20:00,66.6,50.8,29.98,East,81,10.0,15.0,57,0.00,CLR,CLR,0.00,WeatherDisplay:10.37,2013-06-05 19:20:00,
2013-06-05 20:30:00,66.0,51.3,29.98,East,94,7.0,15.0,59,0.00,CLR,CLR,0.00,WeatherDisplay:10.37,2013-06-05 19:30:00,
2013-06-05 20:40:00,65.5,50.8,29.98,East,96,8.0,17.0,59,0.00,CLR,CLR,0.00,WeatherDisplay:10.37,2013-06-05 19:40:00,
2013-06-05 20:50:00,64.9,50.3,29.99,East,97,10.0,15.0,59,0.00,CLR,CLR,0.00,WeatherDisplay:10.37,2013-06-05 19:50:00,
2013-06-05 21:00:00,64.6,49.9,29.99,East,88,6.0,15.0,59,0.00,CLR,CLR,0.00,WeatherDisplay:10.37,2013-06-05 20:00:00,
2013-06-05 21:10:00,64.0,49.9,29.99,East,100,9.0,15.0,60,0.00,CLR,CLR,0.00,WeatherDisplay:10.37,2013-06-05 20:10:00,
2013-06-05 21:20:00,63.3,49.6,29.99,East,99,8.0,16.0,61,0.00,CLR,CLR,0.00,WeatherDisplay:10.37,2013-06-05 20:20:00,
2013-06-05 21:30:00,63.0,49.3,30.00,ESE,114,8.0,14.0,61,0.00,CLR,CLR,0.00,WeatherDisplay:10.37,2013-06-05 20:30:00,
2013-06-05 21:40:00,62.6,49.0,29.99,East,88,7.0,14.0,61,0.00,CLR,CLR,0.00,WeatherDisplay:10.37,2013-06-05 20:40:00,
2013-06-05 21:50:00,62.2,49.1,30.00,East,98,10.0,15.0,62,0.00,CLR,CLR,0.00,WeatherDisplay:10.37,2013-06-05 20:50:00,
2013-06-05 22:00:00,62.1,48.4,30.00,East,81,10.0,18.0,61,0.00,CLR,CLR,0.00,WeatherDisplay:10.37,2013-06-05 21:00:00,
2013-06-05 22:10:00,61.5,48.4,30.00,East,94,10.0,18.0,62,0.00,CLR,CLR,0.00,WeatherDisplay:10.37,2013-06-05 21:10:00,
2013-06-05 22:20:00,61.2,48.0,30.01,East,94,9.0,17.0,62,0.00,CLR,CLR,0.00,WeatherDisplay:10.37,2013-06-05 21:20:00,
2013-06-05 22:30:00,60.6,48.4,30.00,ESE,106,9.0,14.0,64,0.00,CLR,CLR,0.00,WeatherDisplay:10.37,2013-06-05 21:30:00,
2013-06-05 22:40:00,60.3,48.0,30.00,ESE,115,9.0,15.0,64,0.00,CLR,CLR,0.00,WeatherDisplay:10.37,2013-06-05 21:40:00,
2013-06-05 22:50:00,60.1,47.9,30.00,East,99,12.0,17.0,64,0.00,CLR,CLR,0.00,WeatherDisplay:10.37,2013-06-05 21:50:00,
2013-06-05 23:00:00,59.7,47.5,30.01,ESE,113,6.0,17.0,64,0.00,CLR,CLR,0.00,WeatherDisplay:10.37,2013-06-05 22:00:00,
2013-06-05 23:10:00,59.2,47.4,30.01,ESE,110,10.0,14.0,65,0.00,CLR,CLR,0.00,WeatherDisplay:10.37,2013-06-05 22:10:00,
2013-06-05 23:20:00,59.0,47.2,30.01,ESE,105,7.0,15.0,65,0.00,CLR,CLR,0.00,WeatherDisplay:10.37,2013-06-05 22:20:00,
2013-06-05 23:30:00,58.8,47.5,30.01,ESE,104,8.0,15.0,66,0.00,CLR,CLR,0.00,WeatherDisplay:10.37,2013-06-05 22:30:00,
2013-06-05 23:40:00,58.8,47.5,30.01,East,96,8.0,15.0,66,0.00,CLR,CLR,0.00,WeatherDisplay:10.37,2013-06-05 22:40:00,
2013-06-05 23:50:00,58.3,47.4,30.02,East,95,8.0,14.0,67,0.00,CLR,CLR,0.00,WeatherDisplay:10.37,2013-06-05 22:50:00,